sensor_id;sensor_type;location;lat;lon;timestamp;temperature;humidity
55064;DHT22;40963;52.168;21.296;2022-10-31T00:02:18;7.70;99.90
55064;DHT22;40963;52.168;21.296;2022-10-31T00:04:43;7.70;99.90
55064;DHT22;40963;52.168;21.296;2022-10-31T00:07:09;7.60;99.90
55064;DHT22;40963;52.168;21.296;2022-10-31T00:09:34;7.60;99.90
55064;DHT22;40963;52.168;21.296;2022-10-31T00:12:00;7.60;99.90
55064;DHT22;40963;52.168;21.296;2022-10-31T00:14:26;7.50;99.90
55064;DHT22;40963;52.168;21.296;2022-10-31T00:16:51;7.50;99.90
55064;DHT22;40963;52.168;21.296;2022-10-31T00:19:17;7.50;99.90
55064;DHT22;40963;52.168;21.296;2022-10-31T00:21:43;7.50;99.90
55064;DHT22;40963;52.168;21.296;2022-10-31T00:24:08;7.50;99.90
55064;DHT22;40963;52.168;21.296;2022-10-31T00:26:34;7.40;99.90
55064;DHT22;40963;52.168;21.296;2022-10-31T00:29:00;7.50;99.90
55064;DHT22;40963;52.168;21.296;2022-10-31T00:31:26;7.40;99.90
55064;DHT22;40963;52.168;21.296;2022-10-31T00:33:52;7.40;99.90
55064;DHT22;40963;52.168;21.296;2022-10-31T00:36:18;7.40;99.90
55064;DHT22;40963;52.168;21.296;2022-10-31T00:38:45;7.40;99.90
55064;DHT22;40963;52.168;21.296;2022-10-31T00:41:12;7.40;99.90
55064;DHT22;40963;52.168;21.296;2022-10-31T00:43:38;7.30;99.90
55064;DHT22;40963;52.168;21.296;2022-10-31T00:46:04;7.30;99.90
55064;DHT22;40963;52.168;21.296;2022-10-31T00:48:30;7.30;99.90
55064;DHT22;40963;52.168;21.296;2022-10-31T00:50:55;7.20;99.90
55064;DHT22;40963;52.168;21.296;2022-10-31T00:53:21;7.20;99.90
55064;DHT22;40963;52.168;21.296;2022-10-31T00:55:47;7.10;99.90
55064;DHT22;40963;52.168;21.296;2022-10-31T00:58:13;7.10;99.90
55064;DHT22;40963;52.168;21.296;2022-10-31T01:00:39;7.10;99.90
55064;DHT22;40963;52.168;21.296;2022-10-31T01:03:04;7.10;99.90
55064;DHT22;40963;52.168;21.296;2022-10-31T01:05:30;7.10;99.90
55064;DHT22;40963;52.168;21.296;2022-10-31T01:07:56;7.00;99.90
55064;DHT22;40963;52.168;21.296;2022-10-31T01:10:22;7.00;99.90
55064;DHT22;40963;52.168;21.296;2022-10-31T01:12:48;7.00;99.90
55064;DHT22;40963;52.168;21.296;2022-10-31T01:15:19;7.00;99.90
55064;DHT22;40963;52.168;21.296;2022-10-31T01:17:47;6.90;99.90
55064;DHT22;40963;52.168;21.296;2022-10-31T01:20:14;6.90;99.90
55064;DHT22;40963;52.168;21.296;2022-10-31T01:22:40;6.90;99.90
55064;DHT22;40963;52.168;21.296;2022-10-31T01:25:06;6.80;99.90
55064;DHT22;40963;52.168;21.296;2022-10-31T01:27:33;6.80;99.90
55064;DHT22;40963;52.168;21.296;2022-10-31T01:29:58;6.80;99.90
55064;DHT22;40963;52.168;21.296;2022-10-31T01:32:24;6.70;99.90
55064;DHT22;40963;52.168;21.296;2022-10-31T01:34:50;6.70;99.90
55064;DHT22;40963;52.168;21.296;2022-10-31T01:37:15;6.70;99.90
55064;DHT22;40963;52.168;21.296;2022-10-31T01:39:41;6.70;99.90
55064;DHT22;40963;52.168;21.296;2022-10-31T01:42:09;6.70;99.90
55064;DHT22;40963;52.168;21.296;2022-10-31T01:47:13;6.70;99.90
55064;DHT22;40963;52.168;21.296;2022-10-31T01:49:52;6.70;99.90
55064;DHT22;40963;52.168;21.296;2022-10-31T01:52:26;6.60;99.90
55064;DHT22;40963;52.168;21.296;2022-10-31T01:54:59;6.60;99.90
55064;DHT22;40963;52.168;21.296;2022-10-31T01:57:27;6.60;99.90
55064;DHT22;40963;52.168;21.296;2022-10-31T01:59:58;6.60;99.90
55064;DHT22;40963;52.168;21.296;2022-10-31T02:02:25;6.50;99.90
55064;DHT22;40963;52.168;21.296;2022-10-31T02:04:52;6.50;99.90
55064;DHT22;40963;52.168;21.296;2022-10-31T02:07:24;6.50;99.90
55064;DHT22;40963;52.168;21.296;2022-10-31T02:09:51;6.50;99.90
55064;DHT22;40963;52.168;21.296;2022-10-31T02:12:19;6.50;99.90
55064;DHT22;40963;52.168;21.296;2022-10-31T02:14:46;6.50;99.90
55064;DHT22;40963;52.168;21.296;2022-10-31T02:17:12;6.50;99.90
55064;DHT22;40963;52.168;21.296;2022-10-31T02:23:03;6.40;99.90
55064;DHT22;40963;52.168;21.296;2022-10-31T02:28:56;6.30;99.90
55064;DHT22;40963;52.168;21.296;2022-10-31T02:31:53;6.30;99.90
55064;DHT22;40963;52.168;21.296;2022-10-31T02:34:48;6.30;99.90
55064;DHT22;40963;52.168;21.296;2022-10-31T02:37:43;6.30;99.90
55064;DHT22;40963;52.168;21.296;2022-10-31T02:40:25;6.30;99.90
55064;DHT22;40963;52.168;21.296;2022-10-31T02:43:21;6.20;99.90
55064;DHT22;40963;52.168;21.296;2022-10-31T02:45:58;6.20;99.90
55064;DHT22;40963;52.168;21.296;2022-10-31T02:48:28;6.20;99.90
55064;DHT22;40963;52.168;21.296;2022-10-31T02:50:58;6.20;99.90
55064;DHT22;40963;52.168;21.296;2022-10-31T02:53:24;6.20;99.90
55064;DHT22;40963;52.168;21.296;2022-10-31T02:55:59;6.20;99.90
55064;DHT22;40963;52.168;21.296;2022-10-31T02:58:29;6.10;99.90
55064;DHT22;40963;52.168;21.296;2022-10-31T03:01:44;6.10;99.90
55064;DHT22;40963;52.168;21.296;2022-10-31T03:04:37;6.10;99.90
55064;DHT22;40963;52.168;21.296;2022-10-31T03:07:20;6.10;99.90
55064;DHT22;40963;52.168;21.296;2022-10-31T03:10:03;6.10;99.90
55064;DHT22;40963;52.168;21.296;2022-10-31T03:12:46;6.00;99.90
55064;DHT22;40963;52.168;21.296;2022-10-31T03:15:33;6.00;99.90
55064;DHT22;40963;52.168;21.296;2022-10-31T03:18:09;6.00;99.90
55064;DHT22;40963;52.168;21.296;2022-10-31T03:20:46;6.00;99.90
55064;DHT22;40963;52.168;21.296;2022-10-31T03:23:15;6.00;99.90
55064;DHT22;40963;52.168;21.296;2022-10-31T03:25:43;6.00;99.90
55064;DHT22;40963;52.168;21.296;2022-10-31T03:28:12;6.00;99.90
55064;DHT22;40963;52.168;21.296;2022-10-31T03:30:41;5.90;99.90
55064;DHT22;40963;52.168;21.296;2022-10-31T03:33:12;5.90;99.90
55064;DHT22;40963;52.168;21.296;2022-10-31T03:35:42;5.90;99.90
55064;DHT22;40963;52.168;21.296;2022-10-31T03:38:11;5.80;99.90
55064;DHT22;40963;52.168;21.296;2022-10-31T03:40:38;5.80;99.90
55064;DHT22;40963;52.168;21.296;2022-10-31T03:43:09;5.80;99.90
55064;DHT22;40963;52.168;21.296;2022-10-31T03:45:43;5.80;99.90
55064;DHT22;40963;52.168;21.296;2022-10-31T03:48:09;5.80;99.90
55064;DHT22;40963;52.168;21.296;2022-10-31T03:50:45;5.80;99.90
55064;DHT22;40963;52.168;21.296;2022-10-31T03:53:19;5.80;99.90
55064;DHT22;40963;52.168;21.296;2022-10-31T03:55:52;5.80;99.90
55064;DHT22;40963;52.168;21.296;2022-10-31T03:58:34;5.80;99.90
55064;DHT22;40963;52.168;21.296;2022-10-31T04:01:04;5.80;99.90
55064;DHT22;40963;52.168;21.296;2022-10-31T04:03:33;5.70;99.90
55064;DHT22;40963;52.168;21.296;2022-10-31T04:06:05;5.70;99.90
55064;DHT22;40963;52.168;21.296;2022-10-31T04:08:33;5.70;99.90
55064;DHT22;40963;52.168;21.296;2022-10-31T04:11:04;5.70;99.90
55064;DHT22;40963;52.168;21.296;2022-10-31T04:13:33;5.60;99.90
55064;DHT22;40963;52.168;21.296;2022-10-31T04:15:59;5.70;99.90
55064;DHT22;40963;52.168;21.296;2022-10-31T04:18:25;5.60;99.90
55064;DHT22;40963;52.168;21.296;2022-10-31T04:21:03;5.60;99.90
55064;DHT22;40963;52.168;21.296;2022-10-31T04:23:29;5.60;99.90
55064;DHT22;40963;52.168;21.296;2022-10-31T04:25:55;5.60;99.90
55064;DHT22;40963;52.168;21.296;2022-10-31T04:28:21;5.60;99.90
55064;DHT22;40963;52.168;21.296;2022-10-31T04:30:47;5.50;99.90
55064;DHT22;40963;52.168;21.296;2022-10-31T04:33:13;5.50;99.90
55064;DHT22;40963;52.168;21.296;2022-10-31T04:35:38;5.50;99.90
55064;DHT22;40963;52.168;21.296;2022-10-31T04:38:04;5.60;99.90
55064;DHT22;40963;52.168;21.296;2022-10-31T04:40:30;5.50;99.90
55064;DHT22;40963;52.168;21.296;2022-10-31T04:42:56;5.50;99.90
55064;DHT22;40963;52.168;21.296;2022-10-31T04:45:21;5.50;99.90
55064;DHT22;40963;52.168;21.296;2022-10-31T04:47:47;5.40;99.90
55064;DHT22;40963;52.168;21.296;2022-10-31T04:50:13;5.40;99.90
55064;DHT22;40963;52.168;21.296;2022-10-31T04:52:39;5.40;99.90
55064;DHT22;40963;52.168;21.296;2022-10-31T04:55:05;5.40;99.90
55064;DHT22;40963;52.168;21.296;2022-10-31T04:57:31;5.40;99.90
55064;DHT22;40963;52.168;21.296;2022-10-31T04:59:57;5.40;99.90
55064;DHT22;40963;52.168;21.296;2022-10-31T05:02:22;5.40;99.90
55064;DHT22;40963;52.168;21.296;2022-10-31T05:04:48;5.30;99.90
55064;DHT22;40963;52.168;21.296;2022-10-31T05:07:13;5.40;99.90
55064;DHT22;40963;52.168;21.296;2022-10-31T05:09:39;5.40;99.90
55064;DHT22;40963;52.168;21.296;2022-10-31T05:12:05;5.40;99.90
55064;DHT22;40963;52.168;21.296;2022-10-31T05:14:30;5.40;99.90
55064;DHT22;40963;52.168;21.296;2022-10-31T05:16:56;5.30;99.90
55064;DHT22;40963;52.168;21.296;2022-10-31T05:19:21;5.40;99.90
55064;DHT22;40963;52.168;21.296;2022-10-31T05:21:47;5.30;99.90
55064;DHT22;40963;52.168;21.296;2022-10-31T05:24:13;5.30;99.90
55064;DHT22;40963;52.168;21.296;2022-10-31T05:26:38;5.30;99.90
55064;DHT22;40963;52.168;21.296;2022-10-31T05:29:04;5.30;99.90
55064;DHT22;40963;52.168;21.296;2022-10-31T05:31:29;5.30;99.90
55064;DHT22;40963;52.168;21.296;2022-10-31T05:33:55;5.30;99.90
55064;DHT22;40963;52.168;21.296;2022-10-31T05:36:20;5.20;99.90
55064;DHT22;40963;52.168;21.296;2022-10-31T05:38:46;5.30;99.90
55064;DHT22;40963;52.168;21.296;2022-10-31T05:41:12;5.20;99.90
55064;DHT22;40963;52.168;21.296;2022-10-31T05:43:37;5.20;99.90
55064;DHT22;40963;52.168;21.296;2022-10-31T05:46:03;5.20;99.90
55064;DHT22;40963;52.168;21.296;2022-10-31T05:48:28;5.20;99.90
55064;DHT22;40963;52.168;21.296;2022-10-31T05:50:54;5.20;99.90
55064;DHT22;40963;52.168;21.296;2022-10-31T05:53:20;5.20;99.90
55064;DHT22;40963;52.168;21.296;2022-10-31T05:55:46;5.20;99.90
55064;DHT22;40963;52.168;21.296;2022-10-31T05:58:11;5.20;99.90
55064;DHT22;40963;52.168;21.296;2022-10-31T06:00:37;5.20;99.90
55064;DHT22;40963;52.168;21.296;2022-10-31T06:03:05;5.20;99.90
55064;DHT22;40963;52.168;21.296;2022-10-31T06:05:31;5.20;99.90
55064;DHT22;40963;52.168;21.296;2022-10-31T06:07:57;5.20;99.90
55064;DHT22;40963;52.168;21.296;2022-10-31T06:10:23;5.20;99.90
55064;DHT22;40963;52.168;21.296;2022-10-31T06:12:49;5.30;99.90
55064;DHT22;40963;52.168;21.296;2022-10-31T06:15:15;5.30;99.90
55064;DHT22;40963;52.168;21.296;2022-10-31T06:17:41;5.30;99.90
55064;DHT22;40963;52.168;21.296;2022-10-31T06:20:07;5.30;99.90
55064;DHT22;40963;52.168;21.296;2022-10-31T06:22:33;5.40;99.90
55064;DHT22;40963;52.168;21.296;2022-10-31T06:24:59;5.40;99.90
55064;DHT22;40963;52.168;21.296;2022-10-31T06:27:24;5.40;99.90
55064;DHT22;40963;52.168;21.296;2022-10-31T06:29:50;5.50;99.90
55064;DHT22;40963;52.168;21.296;2022-10-31T06:32:16;5.50;99.90
55064;DHT22;40963;52.168;21.296;2022-10-31T06:34:42;5.50;99.90
55064;DHT22;40963;52.168;21.296;2022-10-31T06:37:10;5.50;99.90
55064;DHT22;40963;52.168;21.296;2022-10-31T06:39:35;5.60;99.90
55064;DHT22;40963;52.168;21.296;2022-10-31T06:42:01;5.60;99.90
55064;DHT22;40963;52.168;21.296;2022-10-31T06:44:27;5.70;99.90
55064;DHT22;40963;52.168;21.296;2022-10-31T06:46:53;5.80;99.90
55064;DHT22;40963;52.168;21.296;2022-10-31T06:49:18;5.80;99.90
55064;DHT22;40963;52.168;21.296;2022-10-31T06:51:47;5.90;99.90
55064;DHT22;40963;52.168;21.296;2022-10-31T06:54:13;6.00;99.90
55064;DHT22;40963;52.168;21.296;2022-10-31T06:56:39;6.10;99.90
55064;DHT22;40963;52.168;21.296;2022-10-31T06:59:04;6.10;99.90
55064;DHT22;40963;52.168;21.296;2022-10-31T07:01:30;6.20;99.90
55064;DHT22;40963;52.168;21.296;2022-10-31T07:03:55;6.30;99.90
55064;DHT22;40963;52.168;21.296;2022-10-31T07:06:21;6.40;99.90
55064;DHT22;40963;52.168;21.296;2022-10-31T07:08:47;6.50;99.90
55064;DHT22;40963;52.168;21.296;2022-10-31T07:11:12;6.60;99.90
55064;DHT22;40963;52.168;21.296;2022-10-31T07:13:38;6.70;99.90
55064;DHT22;40963;52.168;21.296;2022-10-31T07:16:05;6.90;99.90
55064;DHT22;40963;52.168;21.296;2022-10-31T07:18:32;7.00;99.90
55064;DHT22;40963;52.168;21.296;2022-10-31T07:20:58;7.10;99.90
55064;DHT22;40963;52.168;21.296;2022-10-31T07:23:23;7.20;99.90
55064;DHT22;40963;52.168;21.296;2022-10-31T07:25:55;7.40;99.90
55064;DHT22;40963;52.168;21.296;2022-10-31T07:28:20;7.50;99.90
55064;DHT22;40963;52.168;21.296;2022-10-31T07:30:53;7.70;99.90
55064;DHT22;40963;52.168;21.296;2022-10-31T07:33:19;7.90;99.90
55064;DHT22;40963;52.168;21.296;2022-10-31T07:35:45;8.00;99.90
55064;DHT22;40963;52.168;21.296;2022-10-31T07:38:12;8.20;99.90
55064;DHT22;40963;52.168;21.296;2022-10-31T07:40:38;8.40;99.90
55064;DHT22;40963;52.168;21.296;2022-10-31T07:43:04;8.60;99.90
55064;DHT22;40963;52.168;21.296;2022-10-31T07:45:30;8.80;99.90
55064;DHT22;40963;52.168;21.296;2022-10-31T07:47:56;8.90;99.90
55064;DHT22;40963;52.168;21.296;2022-10-31T07:50:27;9.10;99.90
55064;DHT22;40963;52.168;21.296;2022-10-31T07:53:05;9.30;99.90
55064;DHT22;40963;52.168;21.296;2022-10-31T07:55:32;9.50;99.90
55064;DHT22;40963;52.168;21.296;2022-10-31T07:58:14;9.70;99.90
55064;DHT22;40963;52.168;21.296;2022-10-31T08:00:43;9.90;99.90
55064;DHT22;40963;52.168;21.296;2022-10-31T08:03:11;10.00;99.90
55064;DHT22;40963;52.168;21.296;2022-10-31T08:05:37;10.10;99.90
55064;DHT22;40963;52.168;21.296;2022-10-31T08:08:05;10.30;99.90
55064;DHT22;40963;52.168;21.296;2022-10-31T08:10:32;10.40;99.90
55064;DHT22;40963;52.168;21.296;2022-10-31T08:13:06;10.50;99.90
55064;DHT22;40963;52.168;21.296;2022-10-31T08:15:33;10.60;99.90
55064;DHT22;40963;52.168;21.296;2022-10-31T08:18:02;10.70;99.90
55064;DHT22;40963;52.168;21.296;2022-10-31T08:20:28;10.80;99.90
55064;DHT22;40963;52.168;21.296;2022-10-31T08:23:02;11.00;99.90
55064;DHT22;40963;52.168;21.296;2022-10-31T08:25:30;11.10;99.90
55064;DHT22;40963;52.168;21.296;2022-10-31T08:27:56;11.20;99.90
55064;DHT22;40963;52.168;21.296;2022-10-31T08:30:24;11.40;99.90
55064;DHT22;40963;52.168;21.296;2022-10-31T08:32:58;11.50;99.90
55064;DHT22;40963;52.168;21.296;2022-10-31T08:35:24;11.60;99.90
55064;DHT22;40963;52.168;21.296;2022-10-31T08:37:54;11.70;99.90
55064;DHT22;40963;52.168;21.296;2022-10-31T08:40:20;11.80;99.90
55064;DHT22;40963;52.168;21.296;2022-10-31T08:42:46;12.00;99.90
55064;DHT22;40963;52.168;21.296;2022-10-31T08:45:11;12.10;99.90
55064;DHT22;40963;52.168;21.296;2022-10-31T08:47:37;12.20;99.90
55064;DHT22;40963;52.168;21.296;2022-10-31T08:50:03;12.30;99.90
55064;DHT22;40963;52.168;21.296;2022-10-31T08:52:28;12.50;99.90
55064;DHT22;40963;52.168;21.296;2022-10-31T08:54:54;12.50;99.90
55064;DHT22;40963;52.168;21.296;2022-10-31T08:57:20;12.60;99.90
55064;DHT22;40963;52.168;21.296;2022-10-31T08:59:45;12.80;99.90
55064;DHT22;40963;52.168;21.296;2022-10-31T09:02:11;12.90;99.90
55064;DHT22;40963;52.168;21.296;2022-10-31T09:04:36;13.00;99.90
55064;DHT22;40963;52.168;21.296;2022-10-31T09:07:02;13.10;99.90
55064;DHT22;40963;52.168;21.296;2022-10-31T09:09:27;13.20;99.90
55064;DHT22;40963;52.168;21.296;2022-10-31T09:11:53;13.30;99.90
55064;DHT22;40963;52.168;21.296;2022-10-31T09:14:18;13.40;99.90
55064;DHT22;40963;52.168;21.296;2022-10-31T09:16:44;13.50;99.90
55064;DHT22;40963;52.168;21.296;2022-10-31T09:19:10;13.60;99.90
55064;DHT22;40963;52.168;21.296;2022-10-31T09:21:35;13.70;99.90
55064;DHT22;40963;52.168;21.296;2022-10-31T09:24:01;13.80;99.90
55064;DHT22;40963;52.168;21.296;2022-10-31T09:26:26;13.90;99.90
55064;DHT22;40963;52.168;21.296;2022-10-31T09:28:52;14.00;99.90
55064;DHT22;40963;52.168;21.296;2022-10-31T09:31:17;14.10;99.90
55064;DHT22;40963;52.168;21.296;2022-10-31T09:33:43;14.20;99.90
55064;DHT22;40963;52.168;21.296;2022-10-31T09:36:09;14.20;99.90
55064;DHT22;40963;52.168;21.296;2022-10-31T09:38:34;14.30;99.90
55064;DHT22;40963;52.168;21.296;2022-10-31T09:41:23;14.40;99.90
55064;DHT22;40963;52.168;21.296;2022-10-31T09:46:54;14.60;99.90
55064;DHT22;40963;52.168;21.296;2022-10-31T09:49:37;14.80;99.90
55064;DHT22;40963;52.168;21.296;2022-10-31T09:52:17;14.90;99.90
55064;DHT22;40963;52.168;21.296;2022-10-31T09:55:06;15.00;99.90
55064;DHT22;40963;52.168;21.296;2022-10-31T09:57:36;15.10;99.90
55064;DHT22;40963;52.168;21.296;2022-10-31T10:00:06;15.10;99.90
55064;DHT22;40963;52.168;21.296;2022-10-31T10:05:41;15.30;99.90
55064;DHT22;40963;52.168;21.296;2022-10-31T10:08:21;15.40;99.90
55064;DHT22;40963;52.168;21.296;2022-10-31T10:27:50;16.10;99.90
55064;DHT22;40963;52.168;21.296;2022-10-31T10:30:35;16.10;99.90
55064;DHT22;40963;52.168;21.296;2022-10-31T10:33:12;16.20;99.90
55064;DHT22;40963;52.168;21.296;2022-10-31T10:35:47;16.30;99.90
55064;DHT22;40963;52.168;21.296;2022-10-31T10:38:23;16.40;99.80
55064;DHT22;40963;52.168;21.296;2022-10-31T10:40:52;16.40;99.40
55064;DHT22;40963;52.168;21.296;2022-10-31T10:45:50;16.60;99.00
55064;DHT22;40963;52.168;21.296;2022-10-31T10:48:51;16.60;98.70
55064;DHT22;40963;52.168;21.296;2022-10-31T10:51:31;16.70;98.30
55064;DHT22;40963;52.168;21.296;2022-10-31T10:54:02;16.80;98.10
55064;DHT22;40963;52.168;21.296;2022-10-31T10:59:20;16.90;97.50
55064;DHT22;40963;52.168;21.296;2022-10-31T11:01:48;17.00;97.40
55064;DHT22;40963;52.168;21.296;2022-10-31T11:04:34;17.10;97.10
55064;DHT22;40963;52.168;21.296;2022-10-31T11:07:05;17.10;96.70
55064;DHT22;40963;52.168;21.296;2022-10-31T11:09:32;17.20;96.60
55064;DHT22;40963;52.168;21.296;2022-10-31T11:11:58;17.20;96.30
55064;DHT22;40963;52.168;21.296;2022-10-31T11:14:26;17.30;96.00
55064;DHT22;40963;52.168;21.296;2022-10-31T11:17:07;17.30;95.90
55064;DHT22;40963;52.168;21.296;2022-10-31T11:19:34;17.30;95.50
55064;DHT22;40963;52.168;21.296;2022-10-31T11:22:07;17.40;95.50
55064;DHT22;40963;52.168;21.296;2022-10-31T11:24:39;17.40;95.10
55064;DHT22;40963;52.168;21.296;2022-10-31T11:27:31;17.40;94.90
55064;DHT22;40963;52.168;21.296;2022-10-31T11:30:06;17.40;94.90
55064;DHT22;40963;52.168;21.296;2022-10-31T11:32:32;17.50;94.70
55064;DHT22;40963;52.168;21.296;2022-10-31T11:35:00;17.50;94.60
55064;DHT22;40963;52.168;21.296;2022-10-31T11:37:29;17.60;94.50
55064;DHT22;40963;52.168;21.296;2022-10-31T11:39:59;17.70;94.30
55064;DHT22;40963;52.168;21.296;2022-10-31T11:42:39;17.70;94.10
55064;DHT22;40963;52.168;21.296;2022-10-31T11:47:52;17.70;93.70
55064;DHT22;40963;52.168;21.296;2022-10-31T11:50:22;17.80;93.70
55064;DHT22;40963;52.168;21.296;2022-10-31T11:52:49;17.80;93.70
55064;DHT22;40963;52.168;21.296;2022-10-31T11:55:29;17.80;93.50
55064;DHT22;40963;52.168;21.296;2022-10-31T11:57:55;17.90;93.50
55064;DHT22;40963;52.168;21.296;2022-10-31T12:00:33;17.90;93.30
55064;DHT22;40963;52.168;21.296;2022-10-31T12:06:26;17.90;93.10
55064;DHT22;40963;52.168;21.296;2022-10-31T12:08:53;17.90;93.00
55064;DHT22;40963;52.168;21.296;2022-10-31T12:17:22;17.80;93.90
55064;DHT22;40963;52.168;21.296;2022-10-31T12:25:21;17.80;93.80
55064;DHT22;40963;52.168;21.296;2022-10-31T12:27:58;17.90;93.90
55064;DHT22;40963;52.168;21.296;2022-10-31T12:33:49;17.80;94.00
55064;DHT22;40963;52.168;21.296;2022-10-31T12:36:21;17.90;94.00
55064;DHT22;40963;52.168;21.296;2022-10-31T12:39:19;17.80;94.10
55064;DHT22;40963;52.168;21.296;2022-10-31T12:50:16;17.70;94.40
55064;DHT22;40963;52.168;21.296;2022-10-31T12:52:56;17.70;94.50
55064;DHT22;40963;52.168;21.296;2022-10-31T12:58:21;17.60;94.70
55064;DHT22;40963;52.168;21.296;2022-10-31T13:00:50;17.50;94.80
55064;DHT22;40963;52.168;21.296;2022-10-31T13:03:29;17.50;95.00
55064;DHT22;40963;52.168;21.296;2022-10-31T13:05:59;17.50;95.20
55064;DHT22;40963;52.168;21.296;2022-10-31T13:08:41;17.40;95.40
55064;DHT22;40963;52.168;21.296;2022-10-31T13:11:25;17.40;95.90
55064;DHT22;40963;52.168;21.296;2022-10-31T13:14:26;17.40;95.80
55064;DHT22;40963;52.168;21.296;2022-10-31T13:16:54;17.40;96.00
55064;DHT22;40963;52.168;21.296;2022-10-31T13:19:34;17.30;96.10
55064;DHT22;40963;52.168;21.296;2022-10-31T13:22:06;17.30;96.20
55064;DHT22;40963;52.168;21.296;2022-10-31T13:27:26;17.20;96.40
55064;DHT22;40963;52.168;21.296;2022-10-31T13:30:00;17.20;96.60
55064;DHT22;40963;52.168;21.296;2022-10-31T13:32:48;17.20;96.70
55064;DHT22;40963;52.168;21.296;2022-10-31T13:35:20;17.20;97.20
55064;DHT22;40963;52.168;21.296;2022-10-31T13:38:37;17.10;96.90
55064;DHT22;40963;52.168;21.296;2022-10-31T13:40:53;17.10;97.10
55064;DHT22;40963;52.168;21.296;2022-10-31T13:46:35;17.00;97.30
55064;DHT22;40963;52.168;21.296;2022-10-31T13:49:00;17.00;97.40
55064;DHT22;40963;52.168;21.296;2022-10-31T13:51:35;17.00;97.50
55064;DHT22;40963;52.168;21.296;2022-10-31T13:54:06;17.00;97.60
55064;DHT22;40963;52.168;21.296;2022-10-31T13:56:49;16.80;97.80
55064;DHT22;40963;52.168;21.296;2022-10-31T13:59:19;16.80;97.90
55064;DHT22;40963;52.168;21.296;2022-10-31T14:01:55;16.80;98.10
55064;DHT22;40963;52.168;21.296;2022-10-31T14:04:24;16.70;98.30
55064;DHT22;40963;52.168;21.296;2022-10-31T14:07:12;16.70;98.40
55064;DHT22;40963;52.168;21.296;2022-10-31T14:09:48;16.60;98.50
55064;DHT22;40963;52.168;21.296;2022-10-31T14:14:49;16.60;98.80
55064;DHT22;40963;52.168;21.296;2022-10-31T14:17:22;16.50;99.00
55064;DHT22;40963;52.168;21.296;2022-10-31T14:22:43;16.40;99.40
55064;DHT22;40963;52.168;21.296;2022-10-31T14:25:31;16.30;99.50
55064;DHT22;40963;52.168;21.296;2022-10-31T14:27:58;16.30;99.70
55064;DHT22;40963;52.168;21.296;2022-10-31T14:30:26;16.20;99.90
55064;DHT22;40963;52.168;21.296;2022-10-31T14:33:10;16.10;99.90
55064;DHT22;40963;52.168;21.296;2022-10-31T14:36:08;16.00;99.90
55064;DHT22;40963;52.168;21.296;2022-10-31T14:38:48;16.00;99.90
55064;DHT22;40963;52.168;21.296;2022-10-31T14:50:06;15.70;99.90
55064;DHT22;40963;52.168;21.296;2022-10-31T14:52:36;15.50;99.90
55064;DHT22;40963;52.168;21.296;2022-10-31T14:55:06;15.40;99.90
55064;DHT22;40963;52.168;21.296;2022-10-31T14:57:34;15.40;99.90
55064;DHT22;40963;52.168;21.296;2022-10-31T15:00:05;15.30;99.90
55064;DHT22;40963;52.168;21.296;2022-10-31T15:02:34;15.20;99.90
55064;DHT22;40963;52.168;21.296;2022-10-31T15:05:10;15.20;99.90
55064;DHT22;40963;52.168;21.296;2022-10-31T15:07:36;15.00;99.90
55064;DHT22;40963;52.168;21.296;2022-10-31T15:10:20;15.00;99.90
55064;DHT22;40963;52.168;21.296;2022-10-31T15:12:46;15.00;99.90
55064;DHT22;40963;52.168;21.296;2022-10-31T15:17:47;14.80;99.90
55064;DHT22;40963;52.168;21.296;2022-10-31T15:20:25;14.70;99.90
55064;DHT22;40963;52.168;21.296;2022-10-31T15:22:52;14.60;99.90
55064;DHT22;40963;52.168;21.296;2022-10-31T15:25:21;14.50;99.90
55064;DHT22;40963;52.168;21.296;2022-10-31T15:27:52;14.40;99.90
55064;DHT22;40963;52.168;21.296;2022-10-31T15:30:26;14.30;99.90
55064;DHT22;40963;52.168;21.296;2022-10-31T15:32:52;14.30;99.90
55064;DHT22;40963;52.168;21.296;2022-10-31T15:35:25;14.20;99.90
55064;DHT22;40963;52.168;21.296;2022-10-31T15:37:54;14.10;99.90
55064;DHT22;40963;52.168;21.296;2022-10-31T15:40:24;14.00;99.90
55064;DHT22;40963;52.168;21.296;2022-10-31T15:42:59;13.90;99.90
55064;DHT22;40963;52.168;21.296;2022-10-31T15:45:27;13.80;99.90
55064;DHT22;40963;52.168;21.296;2022-10-31T15:48:01;13.80;99.90
55064;DHT22;40963;52.168;21.296;2022-10-31T15:53:01;13.60;99.90
55064;DHT22;40963;52.168;21.296;2022-10-31T15:55:31;13.50;99.90
55064;DHT22;40963;52.168;21.296;2022-10-31T15:58:01;13.40;99.90
55064;DHT22;40963;52.168;21.296;2022-10-31T16:00:34;13.30;99.90
55064;DHT22;40963;52.168;21.296;2022-10-31T16:05:43;13.20;99.90
55064;DHT22;40963;52.168;21.296;2022-10-31T16:16:28;12.80;99.90
55064;DHT22;40963;52.168;21.296;2022-10-31T16:18:54;12.70;99.90
55064;DHT22;40963;52.168;21.296;2022-10-31T16:21:37;12.60;99.90
55064;DHT22;40963;52.168;21.296;2022-10-31T16:24:13;12.50;99.90
55064;DHT22;40963;52.168;21.296;2022-10-31T16:26:40;12.40;99.90
55064;DHT22;40963;52.168;21.296;2022-10-31T16:35:23;12.10;99.90
55064;DHT22;40963;52.168;21.296;2022-10-31T16:37:44;12.10;99.90
55064;DHT22;40963;52.168;21.296;2022-10-31T16:40:11;12.00;99.90
55064;DHT22;40963;52.168;21.296;2022-10-31T16:42:38;11.90;99.90
55064;DHT22;40963;52.168;21.296;2022-10-31T16:45:06;11.90;99.90
55064;DHT22;40963;52.168;21.296;2022-10-31T16:47:31;11.80;99.90
55064;DHT22;40963;52.168;21.296;2022-10-31T16:49:57;11.80;99.90
55064;DHT22;40963;52.168;21.296;2022-10-31T16:52:25;11.70;99.90
55064;DHT22;40963;52.168;21.296;2022-10-31T16:54:51;11.70;99.90
55064;DHT22;40963;52.168;21.296;2022-10-31T16:57:20;11.70;99.90
55064;DHT22;40963;52.168;21.296;2022-10-31T16:59:51;11.70;99.90
55064;DHT22;40963;52.168;21.296;2022-10-31T17:02:18;11.60;99.90
55064;DHT22;40963;52.168;21.296;2022-10-31T17:04:44;11.60;99.90
55064;DHT22;40963;52.168;21.296;2022-10-31T17:07:10;11.70;99.90
55064;DHT22;40963;52.168;21.296;2022-10-31T17:09:35;11.80;99.90
55064;DHT22;40963;52.168;21.296;2022-10-31T17:12:01;11.80;99.90
55064;DHT22;40963;52.168;21.296;2022-10-31T17:14:27;11.80;99.90
55064;DHT22;40963;52.168;21.296;2022-10-31T17:16:53;11.90;99.90
55064;DHT22;40963;52.168;21.296;2022-10-31T17:19:19;11.90;99.90
55064;DHT22;40963;52.168;21.296;2022-10-31T17:21:44;11.90;99.90
55064;DHT22;40963;52.168;21.296;2022-10-31T17:24:14;11.90;99.90
55064;DHT22;40963;52.168;21.296;2022-10-31T17:26:40;11.90;99.90
55064;DHT22;40963;52.168;21.296;2022-10-31T17:29:05;11.90;99.90
55064;DHT22;40963;52.168;21.296;2022-10-31T17:31:33;11.90;99.90
55064;DHT22;40963;52.168;21.296;2022-10-31T17:34:01;11.90;99.90